Time;durP1;ratioP1;P1;durP2;ratioP2;P2;SDS_P1;SDS_P2;PMS_P1;PMS_P2;Temp;Humidity;BMP_temperature;BMP_pressure;BME280_temperature;BME280_humidity;BME280_pressure;Samples;Min_cycle;Max_cycle;Signal;HPM_P1;HPM_P2
2023/01/27 00:01:40;;;;;;;4.75;1.02;;;19.50;54.20;;;;;;5053200;28;20040;-61
2023/01/27 00:04:06;;;;;;;3.10;0.77;;;19.50;54.20;;;;;;5052447;28;20083;-58
2023/01/27 00:06:31;;;;;;;3.92;1.10;;;19.40;54.20;;;;;;5053518;28;20052;-58
2023/01/27 00:08:57;;;;;;;2.78;1.00;;;19.50;54.20;;;;;;5051319;28;20052;-58
2023/01/27 00:14:06;;;;;;;3.42;0.90;;;19.40;54.10;;;;;;5050985;28;20048;-58
2023/01/27 00:16:32;;;;;;;3.97;1.30;;;19.40;54.00;;;;;;5051883;28;20052;-58
2023/01/27 00:18:57;;;;;;;2.88;1.00;;;19.40;54.00;;;;;;5052451;28;20047;-58
2023/01/27 00:26:55;;;;;;;6.70;1.15;;;19.40;53.90;;;;;;5052133;28;20053;-58
2023/01/27 00:29:20;;;;;;;3.67;1.30;;;19.40;53.90;;;;;;5052328;28;20048;-58
2023/01/27 00:34:30;;;;;;;5.35;1.13;;;19.30;53.80;;;;;;5053473;28;20076;-58
2023/01/27 00:36:55;;;;;;;3.35;1.30;;;19.30;53.70;;;;;;5052009;28;20087;-58
2023/01/27 00:39:21;;;;;;;3.63;0.73;;;19.30;53.70;;;;;;5052998;28;20500;-58
2023/01/27 00:41:46;;;;;;;3.83;1.15;;;19.30;53.70;;;;;;5053138;28;20444;-58
2023/01/27 00:44:12;;;;;;;3.25;1.00;;;19.30;53.70;;;;;;5052247;28;20116;-58
2023/01/27 00:46:38;;;;;;;4.30;1.17;;;19.30;53.70;;;;;;5052704;28;20048;-58
2023/01/27 00:49:03;;;;;;;3.72;1.00;;;19.30;53.70;;;;;;5052695;28;20048;-58
2023/01/27 00:51:29;;;;;;;3.92;1.10;;;19.30;53.60;;;;;;5052234;28;20068;-58
2023/01/27 00:53:54;;;;;;;4.13;1.00;;;19.30;53.60;;;;;;5051205;28;20041;-58
2023/01/27 00:56:20;;;;;;;4.78;0.90;;;19.30;53.60;;;;;;5052215;28;20086;-58
2023/01/27 00:58:46;;;;;;;1.83;0.88;;;19.30;53.60;;;;;;5052690;28;20047;-58
2023/01/27 01:01:13;;;;;;;3.00;0.98;;;19.20;53.50;;;;;;5052564;28;20041;-58
2023/01/27 01:03:38;;;;;;;3.78;0.85;;;19.20;53.50;;;;;;5052264;28;20458;-58
2023/01/27 01:06:06;;;;;;;3.58;1.00;;;19.20;53.40;;;;;;5052319;28;20532;-58
2023/01/27 01:08:32;;;;;;;3.47;1.00;;;19.20;53.40;;;;;;5052824;28;20103;-58
2023/01/27 01:10:57;;;;;;;1.85;0.70;;;19.20;53.40;;;;;;5051793;28;20067;-58
2023/01/27 01:13:23;;;;;;;2.85;1.00;;;19.20;53.40;;;;;;5052395;28;20448;-58
2023/01/27 01:15:49;;;;;;;3.22;0.90;;;19.20;53.40;;;;;;5052079;28;20123;-58
2023/01/27 01:18:14;;;;;;;3.03;1.00;;;19.20;53.40;;;;;;5052026;28;20056;-58
2023/01/27 01:20:44;;;;;;;3.00;0.80;;;19.20;53.40;;;;;;5052639;28;20041;-58
2023/01/27 01:23:09;;;;;;;4.45;0.90;;;19.20;53.40;;;;;;5051839;28;20462;-58
2023/01/27 01:25:35;;;;;;;3.30;1.08;;;19.10;53.30;;;;;;5050619;28;20132;-58
2023/01/27 01:28:01;;;;;;;2.47;0.80;;;19.10;53.30;;;;;;5052246;28;20554;-58
2023/01/27 01:30:27;;;;;;;2.58;0.70;;;19.10;53.30;;;;;;5058458;28;20561;-58
2023/01/27 01:32:53;;;;;;;3.28;0.90;;;19.10;53.30;;;;;;5056803;28;20041;-58
2023/01/27 01:35:19;;;;;;;3.38;1.02;;;19.10;53.30;;;;;;5057827;28;20167;-58
2023/01/27 01:37:45;;;;;;;3.42;0.90;;;19.10;53.30;;;;;;5059247;28;20166;-58
2023/01/27 01:40:12;;;;;;;3.45;1.02;;;19.10;53.30;;;;;;5058116;28;20063;-58
2023/01/27 01:42:56;;;;;;;2.75;0.90;;;19.10;53.20;;;;;;5058929;28;20044;-58
2023/01/27 01:45:52;;;;;;;1.52;0.70;;;19.10;53.20;;;;;;5059111;28;20045;-58
2023/01/27 01:48:31;;;;;;;3.13;0.90;;;19.10;53.20;;;;;;5056783;28;20049;-58
2023/01/27 01:50:58;;;;;;;2.45;1.10;;;19.10;53.20;;;;;;5057597;28;20484;-58
2023/01/27 01:53:28;;;;;;;2.88;0.80;;;19.00;53.20;;;;;;5056743;28;20128;-58
2023/01/27 01:55:54;;;;;;;3.20;0.80;;;19.00;53.20;;;;;;5057610;28;20044;-58
2023/01/27 01:58:20;;;;;;;2.20;0.90;;;19.00;53.20;;;;;;5057809;28;20040;-58
2023/01/27 02:00:46;;;;;;;1.70;0.77;;;19.00;53.20;;;;;;5058094;28;20071;-59
2023/01/27 02:03:11;;;;;;;2.90;0.90;;;19.00;53.20;;;;;;5057584;28;20048;-59
2023/01/27 02:05:40;;;;;;;3.40;0.90;;;19.00;53.20;;;;;;5057405;28;20068;-58
2023/01/27 02:08:15;;;;;;;1.85;0.63;;;19.00;53.20;;;;;;5057787;28;20073;-58
2023/01/27 02:10:41;;;;;;;1.65;0.70;;;19.00;53.20;;;;;;5057234;28;20492;-59
2023/01/27 02:13:07;;;;;;;2.88;0.80;;;19.00;53.20;;;;;;5057158;28;20136;-58
2023/01/27 02:15:32;;;;;;;2.22;0.90;;;19.00;53.20;;;;;;5057394;28;20083;-58
2023/01/27 02:17:58;;;;;;;3.10;0.70;;;19.00;53.20;;;;;;5057400;28;20393;-58
2023/01/27 02:20:40;;;;;;;2.80;0.85;;;19.00;53.20;;;;;;5057435;28;20044;-58
2023/01/27 02:23:23;;;;;;;1.40;0.55;;;18.90;53.20;;;;;;5057871;28;20053;-58
2023/01/27 02:26:14;;;;;;;2.42;0.80;;;18.90;53.20;;;;;;5040523;28;20053;-58
2023/01/27 02:28:40;;;;;;;2.50;0.70;;;19.00;53.20;;;;;;5039239;28;20417;-58
2023/01/27 02:31:05;;;;;;;2.40;0.95;;;18.90;53.20;;;;;;5058535;28;20045;-58
2023/01/27 02:33:31;;;;;;;1.42;0.50;;;18.90;53.20;;;;;;5058728;28;20384;-58
2023/01/27 02:36:09;;;;;;;3.38;0.93;;;18.90;53.20;;;;;;5057264;28;20049;-58
2023/01/27 02:38:36;;;;;;;;;;;18.90;53.10;;;;;;5057924;28;20511;-58
2023/01/27 02:41:26;;;;;;;1.80;0.60;;;18.90;53.10;;;;;;5054239;28;19967;-58
2023/01/27 02:43:52;;;;;;;1.98;0.80;;;18.90;53.20;;;;;;5053289;28;20049;-58
2023/01/27 02:46:18;;;;;;;2.72;0.82;;;18.90;53.20;;;;;;5053876;28;20107;-58
2023/01/27 02:48:43;;;;;;;1.45;0.60;;;18.90;53.20;;;;;;5053781;28;20045;-58
2023/01/27 02:51:09;;;;;;;2.50;0.65;;;18.90;53.20;;;;;;5054149;28;20049;-58
2023/01/27 02:53:34;;;;;;;1.75;0.77;;;18.90;53.20;;;;;;5055263;28;20033;-58
2023/01/27 02:56:00;;;;;;;2.45;0.70;;;18.90;53.20;;;;;;5052728;28;20443;-58
2023/01/27 02:58:25;;;;;;;2.35;0.75;;;18.90;53.20;;;;;;5054298;28;20045;-58
2023/01/27 03:00:51;;;;;;;1.77;0.50;;;18.90;53.30;;;;;;5054689;28;20045;-58
2023/01/27 03:03:16;;;;;;;0.82;0.50;;;18.90;53.20;;;;;;5054145;28;20041;-58
2023/01/27 03:05:43;;;;;;;1.67;0.60;;;18.90;53.10;;;;;;5054602;28;20540;-58
2023/01/27 03:08:09;;;;;;;2.60;0.70;;;18.90;53.20;;;;;;5054151;28;20033;-58
2023/01/27 03:10:34;;;;;;;1.00;0.60;;;18.90;53.10;;;;;;5054139;28;20120;-58
2023/01/27 03:13:00;;;;;;;1.42;0.70;;;18.90;53.20;;;;;;5053254;28;20119;-58
2023/01/27 03:18:15;;;;;;;1.80;0.60;;;18.90;53.10;;;;;;5053749;28;20048;-58
2023/01/27 03:20:42;;;;;;;1.98;0.50;;;18.90;53.10;;;;;;5053572;28;20045;-58
2023/01/27 03:23:08;;;;;;;1.83;1.05;;;18.90;53.10;;;;;;5054570;28;20118;-58
2023/01/27 03:25:34;;;;;;;1.10;0.50;;;18.90;53.10;;;;;;5053839;28;20481;-58
2023/01/27 03:27:59;;;;;;;2.60;0.60;;;18.90;53.20;;;;;;5054175;28;20044;-58
2023/01/27 03:30:26;;;;;;;1.08;0.50;;;18.90;53.10;;;;;;5053358;28;20523;-58
2023/01/27 03:32:52;;;;;;;1.05;0.50;;;18.90;53.10;;;;;;5053197;28;20049;-58
2023/01/27 03:35:18;;;;;;;1.25;0.50;;;18.90;53.10;;;;;;5054359;28;20408;-58
2023/01/27 03:48:40;;;;;;;1.75;0.50;;;18.90;53.00;;;;;;5054225;28;20116;-58
2023/01/27 03:51:07;;;;;;;2.63;0.70;;;18.90;52.90;;;;;;5053923;28;20576;-58
2023/01/27 03:53:33;;;;;;;1.95;0.57;;;18.90;52.90;;;;;;5053154;28;20135;-58
2023/01/27 03:55:59;;;;;;;1.40;0.52;;;18.90;52.90;;;;;;5052514;28;20055;-58
2023/01/27 03:58:29;;;;;;;1.08;0.50;;;18.90;52.90;;;;;;5053742;28;20041;-58
2023/01/27 04:00:59;;;;;;;1.55;0.60;;;18.90;52.90;;;;;;5052782;28;20121;-58
2023/01/27 04:08:57;;;;;;;0.90;0.47;;;18.90;52.90;;;;;;5053502;28;20049;-58
2023/01/27 04:14:07;;;;;;;1.33;0.50;;;18.90;53.60;;;;;;5052536;28;20412;-58
2023/01/27 04:16:35;;;;;;;1.13;0.47;;;18.90;52.90;;;;;;5053397;28;20064;-58
2023/01/27 04:19:01;;;;;;;1.83;0.57;;;18.90;52.90;;;;;;5053412;28;20072;-58
2023/01/27 04:21:27;;;;;;;1.73;0.47;;;19.00;52.90;;;;;;5052564;28;20346;-58
2023/01/27 04:23:52;;;;;;;1.73;0.40;;;19.00;52.90;;;;;;5053076;28;20037;-58
2023/01/27 04:26:18;;;;;;;1.63;0.60;;;19.00;52.90;;;;;;5052033;28;20114;-58
2023/01/27 04:28:45;;;;;;;1.17;0.45;;;19.00;52.90;;;;;;5052503;28;20535;-58
2023/01/27 04:31:10;;;;;;;0.98;0.38;;;19.00;53.60;;;;;;5052956;28;20053;-58
2023/01/27 04:33:36;;;;;;;1.33;0.40;;;19.00;52.90;;;;;;5053024;28;20048;-58
2023/01/27 04:36:01;;;;;;;2.20;0.50;;;19.00;52.90;;;;;;5052149;28;20037;-58
2023/01/27 04:38:27;;;;;;;0.85;0.40;;;19.10;53.00;;;;;;5051917;28;20037;-59
2023/01/27 04:40:53;;;;;;;1.63;0.50;;;19.10;52.90;;;;;;5053001;28;20044;-58
2023/01/27 04:43:18;;;;;;;1.10;0.40;;;19.10;52.90;;;;;;5051069;28;20059;-58
2023/01/27 04:45:44;;;;;;;0.63;0.30;;;19.10;53.60;;;;;;5052947;28;20079;-58
2023/01/27 04:48:09;;;;;;;1.67;0.68;;;19.10;52.80;;;;;;5051134;28;20090;-58
2023/01/27 04:50:35;;;;;;;1.02;0.50;;;19.10;52.90;;;;;;5050521;28;20123;-58
2023/01/27 04:53:00;;;;;;;0.85;0.32;;;19.10;52.80;;;;;;5052757;28;20037;-58
2023/01/27 04:55:26;;;;;;;1.85;0.50;;;19.20;52.90;;;;;;5052138;28;20397;-58
2023/01/27 04:57:52;;;;;;;0.98;0.40;;;19.20;52.80;;;;;;5051187;28;20041;-58
2023/01/27 05:00:18;;;;;;;0.65;0.30;;;19.20;52.80;;;;;;5052748;28;20114;-58
2023/01/27 05:02:44;;;;;;;0.82;0.40;;;19.20;52.80;;;;;;5033808;28;20053;-58
2023/01/27 05:05:09;;;;;;;1.95;0.47;;;19.20;52.70;;;;;;5051492;28;20377;-58
2023/01/27 05:07:35;;;;;;;0.50;0.30;;;19.20;52.70;;;;;;5052614;28;20040;-58
2023/01/27 05:10:00;;;;;;;0.85;0.40;;;19.30;52.80;;;;;;5051323;28;20049;-58
2023/01/27 05:12:26;;;;;;;0.52;0.30;;;19.30;52.70;;;;;;5052922;28;20047;-58
2023/01/27 05:14:51;;;;;;;1.65;0.50;;;19.30;52.70;;;;;;5052084;28;20045;-58
2023/01/27 05:17:17;;;;;;;0.32;0.30;;;19.30;52.70;;;;;;5051928;28;20489;-58
2023/01/27 05:19:42;;;;;;;0.93;0.40;;;19.30;52.70;;;;;;5052486;28;20045;-58
2023/01/27 05:22:10;;;;;;;0.32;0.30;;;19.30;52.60;;;;;;5052140;28;20441;-58
2023/01/27 05:24:37;;;;;;;1.52;0.40;;;19.30;52.60;;;;;;5051596;28;20084;-58
2023/01/27 05:27:03;;;;;;;1.02;0.35;;;19.30;52.60;;;;;;5067533;28;20515;-58
2023/01/27 05:29:28;;;;;;;1.17;0.40;;;19.30;52.60;;;;;;5052457;28;20092;-58
2023/01/27 05:31:54;;;;;;;0.77;0.30;;;19.40;52.70;;;;;;5051275;28;20492;-58
2023/01/27 05:34:19;;;;;;;0.60;0.28;;;19.40;52.60;;;;;;5052354;28;20501;-58
2023/01/27 05:36:45;;;;;;;1.15;0.40;;;19.40;52.60;;;;;;5052650;28;20061;-58
2023/01/27 05:39:11;;;;;;;0.75;0.30;;;19.40;52.50;;;;;;5051415;28;20396;-58
2023/01/27 05:41:36;;;;;;;0.40;0.22;;;19.40;52.50;;;;;;5051064;28;20047;-58
2023/01/27 05:44:02;;;;;;;1.05;0.50;;;19.40;52.50;;;;;;5052224;28;20048;-58
2023/01/27 05:46:29;;;;;;;0.32;0.30;;;19.40;52.50;;;;;;5050129;28;20048;-58
2023/01/27 05:48:56;;;;;;;0.63;0.30;;;19.40;52.50;;;;;;5050754;28;20485;-58
2023/01/27 05:51:23;;;;;;;1.10;0.30;;;19.40;52.40;;;;;;5051209;28;20480;-58
2023/01/27 05:53:48;;;;;;;0.47;0.20;;;19.50;52.50;;;;;;5051159;28;20044;-58
2023/01/27 05:56:16;;;;;;;0.85;0.35;;;19.50;52.50;;;;;;5052156;28;20041;-58
2023/01/27 05:58:42;;;;;;;0.80;0.40;;;19.50;52.50;;;;;;5051947;28;20033;-58
2023/01/27 06:01:24;;;;;;;0.30;0.20;;;19.50;52.40;;;;;;5051521;28;20052;-58
2023/01/27 06:03:50;;;;;;;0.80;0.43;;;19.50;52.60;;;;;;5051713;28;20064;-58
2023/01/27 06:06:17;;;;;;;1.00;0.38;;;19.50;52.40;;;;;;5050024;28;20484;-58
2023/01/27 06:08:42;;;;;;;1.05;0.38;;;19.50;52.40;;;;;;5051899;28;20052;-58
2023/01/27 06:11:08;;;;;;;0.73;0.20;;;19.50;52.40;;;;;;5050663;28;20053;-58
2023/01/27 06:13:34;;;;;;;1.65;0.30;;;19.60;52.50;;;;;;5051293;28;20064;-58
2023/01/27 06:16:03;;;;;;;0.60;0.30;;;19.60;53.10;;;;;;5052032;28;20049;-58
2023/01/27 06:18:29;;;;;;;0.47;0.30;;;19.60;52.40;;;;;;5054813;28;20045;-58
2023/01/27 06:21:01;;;;;;;0.70;0.30;;;19.60;52.40;;;;;;5054456;28;20059;-58
2023/01/27 06:23:27;;;;;;;1.15;0.20;;;19.60;52.30;;;;;;5054109;28;20051;-57
2023/01/27 06:25:53;;;;;;;0.28;0.20;;;19.60;52.30;;;;;;5055302;28;20040;-58
2023/01/27 06:28:19;;;;;;;1.17;0.30;;;19.60;52.30;;;;;;5053493;28;20083;-60
2023/01/27 06:30:44;;;;;;;2.38;0.38;;;19.60;52.30;;;;;;5054007;28;20090;-60
2023/01/27 06:33:10;;;;;;;0.22;0.20;;;19.60;52.30;;;;;;5055161;28;20045;-61
2023/01/27 06:35:36;;;;;;;1.20;0.35;;;19.60;52.30;;;;;;5054703;28;20079;-60
2023/01/27 06:38:02;;;;;;;1.70;0.30;;;19.60;52.20;;;;;;5055311;28;20037;-60
2023/01/27 06:40:29;;;;;;;2.38;0.20;;;19.60;52.20;;;;;;5053941;28;20052;-60
2023/01/27 06:42:55;;;;;;;2.83;0.30;;;19.70;52.30;;;;;;5054389;28;20087;-60
2023/01/27 06:45:20;;;;;;;2.85;0.38;;;19.70;52.20;;;;;;5053965;28;20040;-60
2023/01/27 06:47:52;;;;;;;1.27;0.22;;;19.70;52.20;;;;;;5055037;28;20076;-60
2023/01/27 06:50:18;;;;;;;0.80;0.30;;;19.70;52.30;;;;;;5053559;28;20049;-61
2023/01/27 06:52:43;;;;;;;1.70;0.20;;;19.70;52.30;;;;;;5054970;28;20041;-60
2023/01/27 06:55:09;;;;;;;1.73;0.30;;;19.70;52.40;;;;;;5054060;28;20496;-61
2023/01/27 06:57:34;;;;;;;2.83;0.30;;;19.70;52.50;;;;;;5054966;28;20052;-60
2023/01/27 07:00:00;;;;;;;0.90;0.30;;;19.70;52.50;;;;;;5054993;28;20041;-60
2023/01/27 07:02:26;;;;;;;1.48;0.28;;;19.70;53.30;;;;;;5052982;28;20116;-61
2023/01/27 07:04:51;;;;;;;1.67;0.20;;;19.70;52.70;;;;;;5054504;28;20098;-59
2023/01/27 07:07:17;;;;;;;0.57;0.38;;;19.80;52.80;;;;;;5054702;28;20179;-59
2023/01/27 07:09:42;;;;;;;3.00;0.43;;;19.70;52.90;;;;;;5053491;28;20065;-59
2023/01/27 07:12:08;;;;;;;0.63;0.30;;;19.80;53.00;;;;;;5052912;28;20049;-59
2023/01/27 07:14:33;;;;;;;1.10;0.30;;;19.80;53.10;;;;;;5053187;28;20045;-59
2023/01/27 07:17:00;;;;;;;1.60;0.30;;;19.80;53.30;;;;;;5052882;28;20076;-60
2023/01/27 07:19:26;;;;;;;1.48;0.32;;;19.80;53.40;;;;;;5053385;28;20576;-60
2023/01/27 07:21:51;;;;;;;2.15;0.40;;;19.80;53.40;;;;;;5054044;28;20043;-59
2023/01/27 07:24:18;;;;;;;2.40;0.28;;;19.90;53.50;;;;;;5053117;28;20439;-60
2023/01/27 07:26:46;;;;;;;3.47;0.75;;;19.90;53.60;;;;;;5053305;28;20124;-60
2023/01/27 07:29:12;;;;;;;;;;;19.80;53.60;;;;;;5054295;28;20033;-60
2023/01/27 07:31:37;;;;;;;0.75;0.30;;;19.90;53.70;;;;;;5051312;28;19923;-60
2023/01/27 07:34:03;;;;;;;2.17;0.40;;;19.90;53.70;;;;;;5052101;28;20052;-60
2023/01/27 07:36:29;;;;;;;3.10;0.43;;;19.90;53.80;;;;;;5054259;28;20028;-60
2023/01/27 07:38:54;;;;;;;0.85;0.30;;;19.90;53.80;;;;;;5052815;28;20415;-60
2023/01/27 07:41:21;;;;;;;1.40;0.30;;;19.90;53.80;;;;;;5053267;28;20073;-60
2023/01/27 07:43:47;;;;;;;1.92;0.30;;;19.90;53.90;;;;;;5068745;28;20483;-60
2023/01/27 07:46:13;;;;;;;2.28;0.43;;;19.90;53.80;;;;;;5068206;28;20508;-60
2023/01/27 07:48:38;;;;;;;1.20;0.20;;;19.90;53.70;;;;;;5053645;28;20049;-60
2023/01/27 07:51:04;;;;;;;1.65;0.28;;;19.90;53.60;;;;;;5051842;28;20097;-61
2023/01/27 07:53:30;;;;;;;1.17;0.30;;;20.00;53.60;;;;;;5052537;28;20033;-61
2023/01/27 07:55:58;;;;;;;1.40;0.50;;;20.00;53.60;;;;;;5053104;28;20049;-60
2023/01/27 07:58:23;;;;;;;1.00;0.30;;;20.00;53.70;;;;;;5052855;28;20083;-60
2023/01/27 08:00:49;;;;;;;1.65;0.30;;;20.00;53.70;;;;;;5053093;28;20049;-61
2023/01/27 08:03:22;;;;;;;0.50;0.20;;;20.00;53.70;;;;;;5053349;28;20503;-60
2023/01/27 08:05:48;;;;;;;1.58;0.30;;;20.00;53.80;;;;;;5051943;28;20048;-61
2023/01/27 08:08:14;;;;;;;1.58;0.40;;;20.00;53.80;;;;;;5053081;28;20033;-60
2023/01/27 08:10:40;;;;;;;1.45;0.43;;;20.00;53.80;;;;;;5052260;28;20370;-61
2023/01/27 08:13:05;;;;;;;2.88;0.30;;;20.00;53.80;;;;;;5052367;28;20572;-60
2023/01/27 08:15:31;;;;;;;1.35;0.30;;;20.00;53.90;;;;;;5052496;28;20045;-60
2023/01/27 08:17:57;;;;;;;1.05;0.30;;;20.10;53.90;;;;;;5053050;28;20942;-60
2023/01/27 08:20:23;;;;;;;1.95;0.20;;;20.10;53.90;;;;;;5052460;28;20090;-62
2023/01/27 08:22:49;;;;;;;2.17;0.30;;;20.10;54.00;;;;;;5051218;28;20388;-61
2023/01/27 08:25:14;;;;;;;2.55;0.40;;;20.10;54.00;;;;;;5051434;28;20519;-62
2023/01/27 08:27:40;;;;;;;1.55;0.40;;;20.10;54.10;;;;;;5051696;28;20033;-62
2023/01/27 08:30:06;;;;;;;2.85;0.32;;;20.10;54.00;;;;;;5051865;28;20466;-60
2023/01/27 08:32:33;;;;;;;1.08;0.30;;;20.10;54.00;;;;;;5051946;28;20044;-61
2023/01/27 08:34:58;;;;;;;2.83;0.38;;;20.10;54.00;;;;;;5051020;28;20079;-61
2023/01/27 08:37:24;;;;;;;2.28;0.40;;;20.10;54.10;;;;;;5052195;28;20111;-60
2023/01/27 08:39:50;;;;;;;3.03;0.40;;;20.10;54.00;;;;;;5051188;28;20044;-61
2023/01/27 08:42:18;;;;;;;0.65;0.30;;;20.10;54.00;;;;;;5049185;28;20033;-62
2023/01/27 08:44:44;;;;;;;2.15;0.30;;;20.10;54.00;;;;;;5052453;28;20404;-62
2023/01/27 08:47:10;;;;;;;0.73;0.20;;;20.10;54.10;;;;;;5051288;28;20068;-63
2023/01/27 08:49:35;;;;;;;3.10;0.40;;;20.10;54.10;;;;;;5051459;28;20396;-62
2023/01/27 08:52:01;;;;;;;0.85;0.30;;;20.10;54.00;;;;;;5051437;28;20124;-62
2023/01/27 08:54:26;;;;;;;2.63;0.30;;;20.10;54.10;;;;;;5067374;28;20090;-63
2023/01/27 08:56:52;;;;;;;2.50;0.30;;;20.10;54.10;;;;;;5050293;28;20111;-63
2023/01/27 08:59:18;;;;;;;0.80;0.30;;;20.10;54.00;;;;;;5052299;28;20041;-63
2023/01/27 09:01:43;;;;;;;1.33;0.20;;;20.10;54.10;;;;;;5051134;28;20543;-62
2023/01/27 09:04:09;;;;;;;1.15;0.20;;;20.10;54.10;;;;;;5051177;28;20041;-63
2023/01/27 09:06:34;;;;;;;1.65;0.30;;;20.10;54.10;;;;;;5047209;28;20041;-63
2023/01/27 09:09:09;;;;;;;0.40;0.20;;;20.10;54.10;;;;;;5051053;28;20476;-62
2023/01/27 09:11:39;;;;;;;3.28;0.30;;;20.10;54.10;;;;;;5051727;28;20476;-62
2023/01/27 09:14:04;;;;;;;1.80;0.30;;;20.20;54.10;;;;;;5051686;28;20049;-60
2023/01/27 09:16:30;;;;;;;2.38;0.30;;;20.20;54.10;;;;;;5050609;28;20057;-60
2023/01/27 09:18:57;;;;;;;6.80;0.55;;;20.20;54.20;;;;;;5051458;28;20049;-60
2023/01/27 09:21:23;;;;;;;1.10;0.30;;;20.20;54.30;;;;;;5050012;28;20500;-61
2023/01/27 09:23:48;;;;;;;1.70;0.43;;;20.20;54.30;;;;;;5050677;28;20187;-61
2023/01/27 09:26:14;;;;;;;1.88;0.20;;;20.20;54.30;;;;;;5050952;28;20128;-62
2023/01/27 09:28:39;;;;;;;1.60;0.30;;;20.20;54.30;;;;;;5050520;28;20041;-61
2023/01/27 09:31:08;;;;;;;1.00;0.30;;;20.20;54.30;;;;;;5050720;28;20051;-61
2023/01/27 09:33:33;;;;;;;0.98;0.40;;;20.20;54.30;;;;;;5051406;28;20408;-61
2023/01/27 09:36:10;;;;;;;1.42;0.20;;;20.20;54.20;;;;;;5050971;28;20054;-61
2023/01/27 09:38:40;;;;;;;1.17;0.32;;;20.30;54.30;;;;;;5051188;28;20041;-61
2023/01/27 09:41:18;;;;;;;2.38;0.40;;;20.30;54.40;;;;;;5050719;28;20138;-60
2023/01/27 09:43:54;;;;;;;1.88;0.40;;;20.30;54.30;;;;;;5051737;28;20041;-60
2023/01/27 09:46:25;;;;;;;2.72;0.20;;;20.30;54.30;;;;;;5050122;28;20500;-60
2023/01/27 09:48:57;;;;;;;3.30;0.20;;;20.30;54.30;;;;;;5050803;28;20041;-60
2023/01/27 09:51:28;;;;;;;3.63;0.45;;;20.30;54.20;;;;;;5053783;28;20033;-60
2023/01/27 09:54:09;;;;;;;1.45;0.40;;;20.30;54.20;;;;;;5055369;28;20068;-59
2023/01/27 09:56:59;;;;;;;2.33;0.32;;;20.30;54.20;;;;;;5053692;28;20041;-60
2023/01/27 09:59:35;;;;;;;0.50;0.30;;;20.30;54.00;;;;;;5053518;28;20045;-60
2023/01/27 10:02:28;;;;;;;0.57;0.30;;;20.30;54.00;;;;;;5053983;28;20080;-60
2023/01/27 10:05:17;;;;;;;2.83;0.30;;;20.30;54.00;;;;;;5053037;28;20041;-60
2023/01/27 10:08:08;;;;;;;0.73;0.20;;;20.40;54.10;;;;;;5054241;28;20048;-60
2023/01/27 10:10:46;;;;;;;2.13;0.30;;;20.40;54.00;;;;;;5042407;28;20053;-60
2023/01/27 10:13:12;;;;;;;;;;;20.40;54.10;;;;;;5052091;28;20041;-61
2023/01/27 10:15:42;;;;;;;1.25;0.30;;;20.30;54.00;;;;;;5070469;28;19927;-61
2023/01/27 10:19:02;;;;;;;0.73;0.30;;;20.40;53.90;;;;;;5054956;28;20048;-61
2023/01/27 10:21:43;;;;;;;3.30;0.20;;;20.40;53.80;;;;;;5032730;28;20107;-60
2023/01/27 10:24:28;;;;;;;1.45;0.40;;;20.40;53.70;;;;;;5044033;28;20386;-60
2023/01/27 10:27:02;;;;;;;2.35;0.30;;;20.40;53.70;;;;;;5041199;28;20076;-62
2023/01/27 10:29:35;;;;;;;2.20;0.50;;;20.40;53.60;;;;;;5053896;28;20048;-60
2023/01/27 10:32:25;;;;;;;1.27;0.30;;;20.40;53.70;;;;;;5053510;28;20106;-59
2023/01/27 10:35:08;;;;;;;3.58;0.70;;;20.40;54.10;;;;;;5053393;28;20473;-61
2023/01/27 10:37:43;;;;;;;2.58;0.30;;;20.40;54.00;;;;;;5054906;28;20037;-61
2023/01/27 10:40:46;;;;;;;2.28;0.28;;;20.40;54.00;;;;;;5032702;28;20055;-61
2023/01/27 10:43:30;;;;;;;1.10;0.40;;;20.40;54.00;;;;;;5044647;28;20045;-60
2023/01/27 10:46:05;;;;;;;1.70;0.40;;;20.40;54.00;;;;;;5054039;28;20052;-61
2023/01/27 10:48:44;;;;;;;0.80;0.20;;;20.40;54.00;;;;;;5053553;28;20098;-62
2023/01/27 10:51:18;;;;;;;1.35;0.32;;;20.50;54.00;;;;;;5054348;28;20091;-61
2023/01/27 10:54:07;;;;;;;1.98;0.30;;;20.40;53.90;;;;;;5054347;28;20060;-61
2023/01/27 10:56:43;;;;;;;1.20;0.30;;;20.50;54.00;;;;;;5038737;28;20408;-62
2023/01/27 10:59:27;;;;;;;1.08;0.20;;;20.50;54.00;;;;;;5053829;28;20052;-61
2023/01/27 11:01:57;;;;;;;4.28;0.40;;;20.50;53.90;;;;;;5067506;28;20044;-67
2023/01/27 11:04:33;;;;;;;2.05;0.30;;;20.50;53.80;;;;;;5036401;28;20048;-61
2023/01/27 11:06:59;;;;;;;3.67;0.20;;;20.50;53.60;;;;;;5035500;28;20057;-60
2023/01/27 11:09:29;;;;;;;0.77;0.30;;;20.50;53.60;;;;;;5035022;28;20448;-61
2023/01/27 11:12:01;;;;;;;4.15;0.65;;;20.50;53.70;;;;;;5052620;28;20116;-60
2023/01/27 11:14:33;;;;;;;1.40;0.30;;;20.50;53.60;;;;;;5052458;28;20044;-60
2023/01/27 11:17:29;;;;;;;1.42;0.30;;;20.50;53.70;;;;;;5051564;28;20068;-60
2023/01/27 11:20:12;;;;;;;0.80;0.25;;;20.50;53.70;;;;;;5053858;28;20051;-60
2023/01/27 11:22:55;;;;;;;1.58;0.30;;;20.50;53.70;;;;;;5036757;28;20396;-60
2023/01/27 11:25:35;;;;;;;2.30;0.30;;;20.50;53.70;;;;;;5053063;28;20094;-61
2023/01/27 11:28:24;;;;;;;1.73;0.30;;;20.50;53.70;;;;;;5052642;28;20382;-60
2023/01/27 11:30:54;;;;;;;0.55;0.20;;;20.50;53.60;;;;;;5052038;28;20040;-61
2023/01/27 11:33:43;;;;;;;1.20;0.30;;;20.50;53.60;;;;;;5053163;28;20055;-61
2023/01/27 11:36:08;;;;;;;1.48;0.30;;;20.50;53.60;;;;;;5051793;28;20499;-61
2023/01/27 11:38:34;;;;;;;1.42;0.22;;;20.50;53.50;;;;;;5051440;28;20041;-62
2023/01/27 11:40:59;;;;;;;0.90;0.20;;;20.50;53.70;;;;;;5036089;28;20052;-60
2023/01/27 11:43:25;;;;;;;1.00;0.20;;;20.50;53.40;;;;;;5053275;28;20147;-61
2023/01/27 11:45:53;;;;;;;0.63;0.20;;;20.50;53.40;;;;;;5068475;28;20475;-60
2023/01/27 11:48:19;;;;;;;0.63;0.43;;;20.50;53.40;;;;;;5072352;28;20476;-61
2023/01/27 11:50:45;;;;;;;1.75;0.30;;;20.50;53.10;;;;;;5073158;28;20119;-61
2023/01/27 11:53:17;;;;;;;0.93;0.35;;;20.50;53.00;;;;;;5072298;28;20041;-60
2023/01/27 11:56:02;;;;;;;0.63;0.30;;;20.50;52.80;;;;;;5072409;28;20055;-61
2023/01/27 11:58:35;;;;;;;1.90;0.30;;;20.50;52.70;;;;;;5057593;28;20408;-61
2023/01/27 12:01:03;;;;;;;0.98;0.45;;;20.50;52.60;;;;;;5072355;28;20032;-61
2023/01/27 12:04:14;;;;;;;0.63;0.30;;;20.50;52.70;;;;;;5072237;28;20098;-60
2023/01/27 12:06:47;;;;;;;1.17;0.30;;;20.50;52.60;;;;;;5071361;28;20076;-61
2023/01/27 12:09:38;;;;;;;1.00;0.30;;;20.40;52.60;;;;;;5072010;28;20045;-61
2023/01/27 12:12:12;;;;;;;3.00;0.40;;;20.40;52.50;;;;;;5072350;28;20076;-61
2023/01/27 12:14:58;;;;;;;2.03;0.50;;;20.40;52.50;;;;;;5073264;28;20064;-59
2023/01/27 12:17:34;;;;;;;1.63;0.35;;;20.40;52.50;;;;;;5071831;28;20048;-61
2023/01/27 12:20:02;;;;;;;2.03;0.47;;;20.40;52.70;;;;;;5036503;28;20155;-61
2023/01/27 12:22:31;;;;;;;;;;;20.40;52.70;;;;;;5061084;28;20110;-61
2023/01/27 12:24:59;;;;;;;2.45;0.40;;;20.40;52.80;;;;;;5071693;28;19921;-61
2023/01/27 12:27:27;;;;;;;1.60;0.40;;;20.40;52.80;;;;;;5071266;28;20040;-61
2023/01/27 12:29:56;;;;;;;1.48;0.30;;;20.40;52.80;;;;;;5071803;28;20040;-61
2023/01/27 12:32:38;;;;;;;2.42;0.30;;;20.40;52.90;;;;;;5071717;28;20044;-62
2023/01/27 12:35:04;;;;;;;0.70;0.30;;;20.40;52.90;;;;;;5072518;28;20036;-62
2023/01/27 12:37:35;;;;;;;1.67;0.40;;;20.40;52.90;;;;;;5071983;28;20045;-61
2023/01/27 12:40:14;;;;;;;1.42;0.32;;;20.40;52.90;;;;;;5070770;28;20050;-62
2023/01/27 12:42:46;;;;;;;2.15;0.40;;;20.40;52.90;;;;;;5071680;28;20052;-62
2023/01/27 12:45:28;;;;;;;3.22;0.40;;;20.40;52.90;;;;;;5071291;28;20412;-62
2023/01/27 12:48:01;;;;;;;1.38;0.30;;;20.40;53.00;;;;;;5071997;28;20051;-60
2023/01/27 12:50:33;;;;;;;1.80;0.50;;;20.40;53.00;;;;;;5066489;28;20393;-60
2023/01/27 12:53:05;;;;;;;1.45;0.40;;;20.40;53.10;;;;;;5053897;28;20045;-61
2023/01/27 12:55:54;;;;;;;1.58;0.45;;;20.40;53.20;;;;;;5049374;28;20040;-60
2023/01/27 12:58:37;;;;;;;0.60;0.28;;;20.40;53.80;;;;;;5035117;28;20091;-60
2023/01/27 13:01:24;;;;;;;0.93;0.40;;;20.50;53.30;;;;;;5044758;28;20876;-60
2023/01/27 13:04:03;;;;;;;2.55;0.50;;;20.40;53.20;;;;;;5031437;28;20104;-60
2023/01/27 13:06:42;;;;;;;1.83;0.50;;;20.40;53.30;;;;;;5063541;28;20046;-60
2023/01/27 13:09:19;;;;;;;0.70;0.30;;;20.50;53.30;;;;;;5062736;28;20041;-60
2023/01/27 13:11:45;;;;;;;1.80;0.40;;;20.40;53.20;;;;;;5032441;28;20131;-60
2023/01/27 13:14:15;;;;;;;0.93;0.35;;;20.40;53.20;;;;;;5032045;28;20091;-60
2023/01/27 13:16:40;;;;;;;1.75;0.40;;;20.50;53.20;;;;;;5031640;28;20050;-60
2023/01/27 13:19:15;;;;;;;1.17;0.40;;;20.50;53.20;;;;;;5031797;28;20053;-60
2023/01/27 13:21:41;;;;;;;1.65;0.30;;;20.50;53.20;;;;;;5064227;28;20041;-60
2023/01/27 13:24:13;;;;;;;1.00;0.40;;;20.50;53.30;;;;;;5030965;28;20053;-60
2023/01/27 13:26:38;;;;;;;1.50;0.30;;;20.50;53.30;;;;;;5063663;28;20115;-60
2023/01/27 13:29:24;;;;;;;1.30;0.40;;;20.50;53.30;;;;;;5046496;28;20077;-60
2023/01/27 13:32:14;;;;;;;0.73;0.30;;;20.50;53.20;;;;;;5039650;28;20040;-60
2023/01/27 13:34:42;;;;;;;1.27;0.30;;;20.50;53.20;;;;;;5037674;28;20098;-60